sim
Sign-in with your pilot id or email,
or register
Callsign
Passwort

Schedule Details

Flight Number: OEF9149
Departure: Chicago O'Hare International Airport (KORD) at 05:20
Arrival: Munich Airport (EDDM) at 13:15

Weather Information
Getting current METAR information for KORD 261751Z 19013G22KT 10SM OVC013 21/17 A2977 RMK AO2 SLP078 T02060167 10206 20178 58023
Getting current METAR information for EDDM 261750Z 25022G32KT 9999 -RA BKN023 OVC042 07/04 Q1001 NOSIG

Schedule Frequency

Route Map